Time;durP1;ratioP1;P1;durP2;ratioP2;P2;SDS_P1;SDS_P2;PMS_P1;PMS_P2;Temp;Humidity;BMP_temperature;BMP_pressure;BME280_temperature;BME280_humidity;BME280_pressure;Samples;Min_cycle;Max_cycle;Signal;HPM_P1;HPM_P2
2022/03/26 00:01:24;;;;;;;46.58;16.13;;;5.40;99.90;;;;;;6161794;23;20017;-80
2022/03/26 00:03:50;;;;;;;40.80;16.20;;;5.40;99.90;;;;;;6162173;23;20389;-80
2022/03/26 00:06:15;;;;;;;42.90;16.92;;;5.30;99.90;;;;;;6136345;23;20304;-80
2022/03/26 00:08:41;;;;;;;47.42;19.55;;;5.30;99.90;;;;;;6137848;23;20051;-80
2022/03/26 00:11:06;;;;;;;46.55;17.65;;;5.30;99.90;;;;;;6160886;23;20048;-80
2022/03/26 00:13:32;;;;;;;49.45;20.35;;;5.20;99.90;;;;;;6161915;23;20615;-80
2022/03/26 00:15:57;;;;;;;46.58;18.15;;;5.20;99.90;;;;;;6161888;23;20024;-80
2022/03/26 00:18:23;;;;;;;44.67;17.38;;;5.20;99.90;;;;;;6161835;23;20020;-80
2022/03/26 00:20:49;;;;;;;43.60;18.27;;;5.20;99.90;;;;;;6159543;23;20098;-80
2022/03/26 00:23:14;;;;;;;44.63;17.92;;;5.30;99.90;;;;;;6134507;23;20385;-81
2022/03/26 00:25:40;;;;;;;47.58;18.55;;;5.20;99.90;;;;;;6158815;23;20012;-79
2022/03/26 00:28:06;;;;;;;44.42;17.63;;;5.10;99.90;;;;;;6159278;23;20022;-79
2022/03/26 00:30:31;;;;;;;47.50;19.95;;;5.10;99.90;;;;;;6134502;23;20339;-79
2022/03/26 00:32:57;;;;;;;45.65;16.85;;;5.10;99.90;;;;;;6159064;23;20063;-79
2022/03/26 00:35:22;;;;;;;49.60;20.40;;;5.10;99.90;;;;;;6159243;23;20048;-82
2022/03/26 00:37:48;;;;;;;45.40;18.45;;;5.10;99.90;;;;;;6158544;23;20005;-79
2022/03/26 00:40:13;;;;;;;49.28;19.38;;;5.00;99.90;;;;;;6158655;23;20020;-79
2022/03/26 00:42:39;;;;;;;44.97;17.48;;;5.00;99.90;;;;;;6158721;23;20087;-80
2022/03/26 00:45:06;;;;;;;39.40;16.30;;;4.90;99.90;;;;;;6159037;23;20036;-80
2022/03/26 00:47:32;;;;;;;47.25;19.17;;;4.80;99.90;;;;;;6159035;23;20017;-80
2022/03/26 00:49:57;;;;;;;46.75;19.35;;;4.80;99.90;;;;;;6133960;23;20028;-80
2022/03/26 00:52:23;;;;;;;52.40;21.73;;;4.70;99.90;;;;;;6158847;23;20013;-80
2022/03/26 00:54:49;;;;;;;51.30;19.40;;;4.70;99.90;;;;;;6158698;23;20029;-79
2022/03/26 00:57:16;;;;;;;47.47;20.05;;;4.70;99.90;;;;;;6158849;23;20013;-80
2022/03/26 00:59:42;;;;;;;56.42;21.58;;;4.70;99.90;;;;;;6158334;23;20013;-80
2022/03/26 01:02:08;;;;;;;59.50;21.20;;;4.70;99.90;;;;;;6134017;23;20405;-79
2022/03/26 01:04:33;;;;;;;54.10;22.08;;;4.80;99.90;;;;;;6158932;23;20017;-79
2022/03/26 01:06:59;;;;;;;47.22;18.50;;;4.80;99.90;;;;;;6158444;23;20044;-79
2022/03/26 01:09:24;;;;;;;49.40;19.50;;;4.70;99.90;;;;;;6158516;23;20017;-80
2022/03/26 01:11:50;;;;;;;56.10;20.75;;;4.80;99.90;;;;;;6158302;23;20008;-80
2022/03/26 01:14:16;;;;;;;51.72;19.75;;;4.70;99.90;;;;;;6158751;23;20061;-79
2022/03/26 01:16:41;;;;;;;54.45;19.92;;;4.70;99.90;;;;;;6158824;23;20013;-80
2022/03/26 01:19:07;;;;;;;50.20;19.75;;;4.70;99.90;;;;;;6158287;23;20017;-81
2022/03/26 01:21:32;;;;;;;60.80;22.70;;;4.70;99.90;;;;;;6158282;23;20096;-80
2022/03/26 01:23:58;;;;;;;53.55;21.08;;;4.60;99.90;;;;;;6158696;23;20016;-79
2022/03/26 01:26:23;;;;;;;53.17;20.92;;;4.60;99.90;;;;;;6158481;23;20080;-79
2022/03/26 01:28:49;;;;;;;53.85;22.10;;;4.60;99.90;;;;;;6158342;23;20391;-80
2022/03/26 01:31:19;;;;;;;56.50;20.27;;;4.50;99.90;;;;;;6158302;23;20446;-80
2022/03/26 01:33:48;;;;;;;49.45;19.75;;;4.50;99.90;;;;;;6158340;23;20040;-80
2022/03/26 01:36:14;;;;;;;66.35;21.25;;;4.50;99.90;;;;;;6184785;23;20077;-80
2022/03/26 01:38:39;;;;;;;60.03;22.52;;;4.40;99.90;;;;;;6158097;23;20040;-79
2022/03/26 01:41:05;;;;;;;59.58;20.35;;;4.40;99.90;;;;;;6133460;23;20421;-79
2022/03/26 01:43:30;;;;;;;49.65;19.45;;;4.40;99.90;;;;;;6158120;23;20100;-81
2022/03/26 01:45:56;;;;;;;55.65;20.23;;;4.30;99.90;;;;;;6158202;23;20043;-79
2022/03/26 01:48:22;;;;;;;49.47;19.35;;;4.30;99.90;;;;;;6158165;23;20017;-79
2022/03/26 01:50:47;;;;;;;45.78;19.25;;;4.30;99.90;;;;;;6157748;23;20020;-80
2022/03/26 01:53:13;;;;;;;49.80;21.38;;;4.30;99.90;;;;;;6133472;23;20093;-82
2022/03/26 01:55:38;;;;;;;61.38;22.98;;;4.30;99.90;;;;;;6158124;23;20451;-79
2022/03/26 01:58:04;;;;;;;55.95;20.45;;;4.20;99.90;;;;;;6133831;23;20103;-80
2022/03/26 02:00:30;;;;;;;58.40;23.23;;;4.20;99.90;;;;;;6133241;23;20005;-80
2022/03/26 02:02:56;;;;;;;54.55;20.55;;;4.20;99.90;;;;;;6158131;23;20020;-79
2022/03/26 02:05:22;;;;;;;56.90;20.67;;;4.20;99.90;;;;;;6183974;23;20063;-79
2022/03/26 02:07:49;;;;;;;57.67;20.83;;;4.20;99.90;;;;;;6157954;23;20017;-80
2022/03/26 02:10:16;;;;;;;54.40;20.70;;;4.20;99.90;;;;;;6184075;23;20020;-79
2022/03/26 02:12:43;;;;;;;53.33;20.30;;;4.20;99.90;;;;;;6157779;23;20060;-79
2022/03/26 02:15:09;;;;;;;54.65;20.92;;;4.10;99.90;;;;;;6157822;23;20013;-79
2022/03/26 02:17:38;;;;;;;55.90;23.55;;;4.10;99.90;;;;;;6158245;23;20023;-79
2022/03/26 02:20:08;;;;;;;57.47;21.27;;;4.10;99.90;;;;;;6157512;23;20525;-80
2022/03/26 02:22:34;;;;;;;54.58;20.98;;;4.00;99.90;;;;;;6133417;23;20013;-82
2022/03/26 02:25:00;;;;;;;61.47;23.20;;;4.00;99.90;;;;;;6157684;23;20458;-80
2022/03/26 02:27:27;;;;;;;60.95;22.23;;;4.00;99.90;;;;;;6184096;23;20013;-79
2022/03/26 02:29:53;;;;;;;52.22;21.88;;;4.00;99.90;;;;;;6133117;23;20446;-79
2022/03/26 02:32:23;;;;;;;50.13;19.40;;;4.00;99.90;;;;;;6157751;23;20060;-80
2022/03/26 02:34:49;;;;;;;61.72;21.80;;;3.90;99.90;;;;;;6133427;23;20036;-80
2022/03/26 02:37:16;;;;;;;61.17;21.73;;;3.90;99.90;;;;;;6157651;23;20446;-79
2022/03/26 02:39:42;;;;;;;62.35;22.08;;;3.90;99.90;;;;;;6132806;23;20012;-79
2022/03/26 02:42:08;;;;;;;56.05;22.85;;;3.80;99.90;;;;;;6158147;23;20032;-79
2022/03/26 02:44:34;;;;;;;66.72;24.52;;;3.80;99.90;;;;;;6157604;23;20087;-79
2022/03/26 02:46:59;;;;;;;62.53;22.02;;;3.80;99.90;;;;;;6157752;23;20020;-80
2022/03/26 02:49:25;;;;;;;61.80;23.92;;;3.80;99.90;;;;;;6132679;23;20021;-80
2022/03/26 02:51:50;;;;;;;58.50;23.98;;;3.80;99.90;;;;;;6157325;23;20021;-81
2022/03/26 02:54:18;;;;;;;64.75;24.58;;;3.70;99.90;;;;;;6157591;23;20013;-79
2022/03/26 02:56:48;;;;;;;60.63;22.60;;;3.70;99.90;;;;;;6157309;23;20056;-80
2022/03/26 02:59:14;;;;;;;61.97;23.30;;;3.70;99.90;;;;;;6157597;23;20087;-79
2022/03/26 03:01:40;;;;;;;67.25;22.38;;;3.70;99.90;;;;;;6157257;23;20040;-79
2022/03/26 03:04:05;;;;;;;61.70;22.08;;;3.60;99.90;;;;;;6157536;23;20454;-79
2022/03/26 03:06:32;;;;;;;59.33;22.25;;;3.60;99.90;;;;;;6133247;23;20044;-80
2022/03/26 03:08:57;;;;;;;55.83;20.58;;;3.60;99.90;;;;;;6133428;23;20109;-80
2022/03/26 03:11:23;;;;;;;60.38;20.48;;;3.50;99.90;;;;;;6132360;23;20048;-81
2022/03/26 03:13:49;;;;;;;56.15;21.50;;;3.50;99.90;;;;;;6157594;23;20435;-79
2022/03/26 03:16:14;;;;;;;54.17;21.00;;;3.60;99.90;;;;;;6157495;23;20009;-79
2022/03/26 03:18:40;;;;;;;58.33;21.63;;;3.60;99.90;;;;;;6157651;23;20066;-79
2022/03/26 03:21:06;;;;;;;55.78;22.48;;;3.50;99.90;;;;;;6157176;23;20013;-80
2022/03/26 03:23:32;;;;;;;68.43;23.13;;;3.60;99.90;;;;;;6157488;23;20013;-80
2022/03/26 03:25:57;;;;;;;60.03;22.38;;;3.50;99.90;;;;;;6132757;23;20013;-80
2022/03/26 03:28:23;;;;;;;69.38;25.30;;;3.60;99.90;;;;;;6157449;23;20014;-79
2022/03/26 03:30:49;;;;;;;64.40;24.10;;;3.60;99.90;;;;;;6156976;23;20040;-80
2022/03/26 03:33:14;;;;;;;64.40;22.75;;;3.50;99.90;;;;;;6157512;23;20018;-79
2022/03/26 03:35:40;;;;;;;57.88;20.95;;;3.50;99.90;;;;;;6157480;23;20016;-80
2022/03/26 03:38:06;;;;;;;56.88;23.20;;;3.50;99.90;;;;;;6157310;23;20009;-80
2022/03/26 03:40:32;;;;;;;63.83;23.90;;;3.50;99.90;;;;;;6156991;23;20032;-80
2022/03/26 03:42:58;;;;;;;53.75;21.30;;;3.50;99.90;;;;;;6157398;23;20323;-81
2022/03/26 03:45:24;;;;;;;55.83;23.48;;;3.50;99.90;;;;;;6157335;23;20017;-79
2022/03/26 03:47:50;;;;;;;60.97;23.10;;;3.50;99.90;;;;;;6157376;23;20009;-79
2022/03/26 03:50:15;;;;;;;56.47;21.40;;;3.40;99.90;;;;;;6183395;23;20067;-80
2022/03/26 03:52:41;;;;;;;61.30;23.30;;;3.30;99.90;;;;;;6132766;23;20043;-79
2022/03/26 03:55:07;;;;;;;61.90;22.52;;;3.20;99.90;;;;;;6157360;23;20016;-80
2022/03/26 03:57:33;;;;;;;60.38;23.02;;;3.20;99.90;;;;;;6157325;23;20017;-80
2022/03/26 03:59:59;;;;;;;60.55;22.17;;;3.20;99.90;;;;;;6158127;23;20093;-80
2022/03/26 04:02:24;;;;;;;61.90;23.17;;;3.20;99.90;;;;;;6159216;23;20017;-79
2022/03/26 04:04:50;;;;;;;56.35;19.73;;;3.20;99.90;;;;;;6159212;23;20017;-80
2022/03/26 04:07:15;;;;;;;54.05;20.05;;;3.20;99.90;;;;;;6159095;23;20048;-80
2022/03/26 04:09:41;;;;;;;59.05;21.95;;;3.20;99.90;;;;;;6158783;23;20017;-79
2022/03/26 04:12:07;;;;;;;60.78;22.35;;;3.20;99.90;;;;;;6159033;23;20016;-79
2022/03/26 04:14:33;;;;;;;61.90;21.63;;;3.20;99.90;;;;;;6158748;23;20036;-81
2022/03/26 04:16:58;;;;;;;63.22;23.42;;;3.20;99.90;;;;;;6158984;23;20021;-79
2022/03/26 04:19:24;;;;;;;62.60;23.63;;;3.10;99.90;;;;;;6161177;23;20415;-81
2022/03/26 04:21:49;;;;;;;59.50;23.20;;;3.10;99.90;;;;;;6160858;23;20067;-81
2022/03/26 04:24:16;;;;;;;61.72;22.08;;;3.10;99.90;;;;;;6162408;23;20016;-81
2022/03/26 04:26:42;;;;;;;63.20;24.17;;;3.10;99.90;;;;;;6137222;23;20390;-81
2022/03/26 04:29:07;;;;;;;65.68;24.38;;;3.10;99.90;;;;;;6161883;23;20051;-81
2022/03/26 04:31:33;;;;;;;63.97;23.13;;;3.10;99.90;;;;;;6137869;23;20016;-81
2022/03/26 04:34:01;;;;;;;63.30;23.88;;;3.10;99.90;;;;;;6163953;23;20005;-81
2022/03/26 04:36:31;;;;;;;72.78;25.00;;;3.10;99.90;;;;;;6138937;23;20095;-82
2022/03/26 04:38:57;;;;;;;66.65;27.65;;;3.10;99.90;;;;;;6163372;23;20083;-81
2022/03/26 04:41:23;;;;;;;70.28;25.27;;;3.10;99.90;;;;;;6137431;23;20451;-81
2022/03/26 04:43:49;;;;;;;74.15;26.30;;;3.10;99.90;;;;;;6137179;23;20017;-81
2022/03/26 04:46:14;;;;;;;70.55;22.88;;;3.10;99.90;;;;;;6162045;23;20017;-82
2022/03/26 04:48:41;;;;;;;76.13;26.75;;;3.10;99.90;;;;;;6161990;23;20577;-81
2022/03/26 04:51:07;;;;;;;68.38;24.77;;;3.00;99.90;;;;;;6161176;23;20021;-81
2022/03/26 04:53:32;;;;;;;79.20;26.52;;;3.00;99.90;;;;;;6137431;23;20100;-81
2022/03/26 04:55:58;;;;;;;65.93;25.45;;;3.00;99.90;;;;;;6137391;23;20059;-81
2022/03/26 04:58:24;;;;;;;71.03;26.38;;;3.00;99.90;;;;;;6161752;23;20013;-81
2022/03/26 05:00:49;;;;;;;77.65;25.77;;;2.90;99.90;;;;;;6161477;23;20071;-81
2022/03/26 05:03:15;;;;;;;72.50;26.35;;;2.90;99.90;;;;;;6136516;23;20044;-81
2022/03/26 05:05:40;;;;;;;74.22;27.40;;;2.90;99.90;;;;;;6137275;23;20024;-81
2022/03/26 05:08:06;;;;;;;77.40;27.73;;;2.90;99.90;;;;;;6161061;23;20015;-81
2022/03/26 05:10:32;;;;;;;75.35;27.40;;;2.90;99.90;;;;;;6159907;23;20017;-81
2022/03/26 05:12:59;;;;;;;71.35;25.02;;;2.90;99.90;;;;;;6160405;23;20021;-81
2022/03/26 05:15:27;;;;;;;70.25;25.13;;;2.90;99.90;;;;;;6135991;23;20409;-81
2022/03/26 05:17:53;;;;;;;70.97;25.38;;;2.90;99.90;;;;;;6136456;23;20090;-81
2022/03/26 05:20:19;;;;;;;66.82;24.10;;;2.90;99.90;;;;;;6160084;23;20005;-81
2022/03/26 05:22:46;;;;;;;69.38;25.55;;;2.90;99.90;;;;;;6160935;23;20016;-81
2022/03/26 05:25:12;;;;;;;70.28;25.02;;;2.90;99.90;;;;;;6160504;23;20088;-81
2022/03/26 05:27:42;;;;;;;65.78;22.92;;;2.90;99.90;;;;;;6159031;23;20350;-80
2022/03/26 05:30:08;;;;;;;70.80;24.10;;;2.90;99.90;;;;;;6160064;23;20398;-80
2022/03/26 05:32:34;;;;;;;79.85;25.98;;;2.90;99.90;;;;;;6161330;23;20024;-80
2022/03/26 05:35:00;;;;;;;71.85;24.63;;;2.90;99.90;;;;;;6159445;23;20610;-80
2022/03/26 05:37:25;;;;;;;71.10;25.65;;;2.90;99.90;;;;;;6158251;23;20513;-80
2022/03/26 05:39:51;;;;;;;84.13;27.75;;;2.90;99.90;;;;;;6158126;23;20067;-81
2022/03/26 05:42:18;;;;;;;80.53;28.17;;;2.80;99.90;;;;;;6158464;23;20394;-79
2022/03/26 05:44:43;;;;;;;85.25;30.20;;;2.80;99.90;;;;;;6159127;23;20423;-81
2022/03/26 05:47:09;;;;;;;87.65;32.15;;;2.90;99.90;;;;;;6134330;23;20017;-80
2022/03/26 05:49:35;;;;;;;72.90;25.88;;;2.90;99.90;;;;;;6158274;23;20048;-80
2022/03/26 05:52:01;;;;;;;78.50;25.80;;;2.90;99.90;;;;;;6158433;23;20013;-80
2022/03/26 05:54:26;;;;;;;83.20;29.00;;;2.80;99.90;;;;;;6158970;23;20060;-80
2022/03/26 05:56:52;;;;;;;84.63;30.83;;;2.80;99.90;;;;;;6159064;23;20008;-80
2022/03/26 05:59:20;;;;;;;84.18;29.92;;;2.90;99.90;;;;;;6158815;23;20016;-80
2022/03/26 06:01:46;;;;;;;80.75;28.27;;;2.90;99.90;;;;;;6158762;23;20020;-80
2022/03/26 06:04:11;;;;;;;89.93;29.90;;;3.00;99.90;;;;;;6158497;23;20021;-80
2022/03/26 06:06:37;;;;;;;82.57;28.50;;;3.10;99.90;;;;;;6158637;23;20550;-80
2022/03/26 06:09:02;;;;;;;82.32;29.75;;;3.10;99.90;;;;;;6158372;23;20359;-80
2022/03/26 06:11:28;;;;;;;87.53;30.00;;;3.20;99.90;;;;;;6158457;23;20017;-81
2022/03/26 06:13:54;;;;;;;84.00;29.27;;;3.30;99.90;;;;;;6158912;23;20005;-79
2022/03/26 06:16:19;;;;;;;87.43;30.45;;;3.30;99.90;;;;;;6158905;23;20017;-79
2022/03/26 06:18:45;;;;;;;89.78;30.35;;;3.30;99.90;;;;;;6158632;23;20013;-80
2022/03/26 06:21:10;;;;;;;89.68;31.95;;;3.40;99.90;;;;;;6133831;23;20497;-80
2022/03/26 06:23:36;;;;;;;88.38;32.83;;;3.40;99.90;;;;;;6158487;23;20351;-80
2022/03/26 06:26:02;;;;;;;92.70;33.35;;;3.50;99.90;;;;;;6134765;23;20016;-80
2022/03/26 06:28:27;;;;;;;88.97;32.97;;;3.50;99.90;;;;;;6159164;23;20105;-80
2022/03/26 06:30:53;;;;;;;102.57;35.50;;;3.60;99.90;;;;;;6159024;23;20019;-80
2022/03/26 06:33:19;;;;;;;96.55;36.00;;;3.60;99.90;;;;;;6158632;23;20083;-81
2022/03/26 06:35:45;;;;;;;95.28;32.50;;;3.70;99.90;;;;;;6184928;23;20017;-80
2022/03/26 06:38:11;;;;;;;89.95;35.15;;;3.80;99.90;;;;;;6158563;23;20048;-80
2022/03/26 06:40:38;;;;;;;93.40;34.53;;;3.90;99.90;;;;;;6133804;23;20005;-81
2022/03/26 06:43:05;;;;;;;98.53;36.85;;;4.00;99.90;;;;;;6158476;23;20476;-80
2022/03/26 06:45:31;;;;;;;103.50;34.58;;;4.10;99.90;;;;;;6159085;23;20017;-80
2022/03/26 06:47:56;;;;;;;93.80;34.53;;;4.20;99.90;;;;;;6159227;23;20024;-80
2022/03/26 06:50:22;;;;;;;114.10;37.20;;;4.40;99.90;;;;;;6158929;23;20024;-80
2022/03/26 06:52:48;;;;;;;105.05;36.83;;;4.50;99.90;;;;;;6158796;23;20024;-80
2022/03/26 06:55:13;;;;;;;106.85;36.47;;;4.70;99.90;;;;;;6135307;23;20056;-80
2022/03/26 06:57:41;;;;;;;100.00;34.47;;;4.90;99.90;;;;;;6161631;23;20017;-80
2022/03/26 07:00:09;;;;;;;101.13;36.88;;;5.00;99.90;;;;;;6135674;23;20013;-80
2022/03/26 07:02:35;;;;;;;105.47;36.20;;;5.20;99.90;;;;;;6136861;23;20047;-80
2022/03/26 07:05:04;;;;;;;101.15;36.78;;;5.30;99.90;;;;;;6161968;23;20138;-80
2022/03/26 07:07:30;;;;;;;114.20;38.92;;;5.50;99.90;;;;;;6137662;23;20019;-80
2022/03/26 07:09:56;;;;;;;119.32;43.53;;;5.80;99.90;;;;;;6159189;23;20048;-81
2022/03/26 07:12:21;;;;;;;118.05;41.72;;;5.90;99.90;;;;;;6160887;23;20537;-80
2022/03/26 07:14:47;;;;;;;119.03;40.72;;;6.20;99.90;;;;;;6161189;23;20494;-79
2022/03/26 07:17:13;;;;;;;117.95;41.92;;;6.30;99.90;;;;;;6162399;23;20033;-80
2022/03/26 07:19:38;;;;;;;117.57;42.78;;;6.50;99.90;;;;;;6161827;23;20013;-80
2022/03/26 07:22:04;;;;;;;119.18;41.55;;;6.80;99.90;;;;;;6139895;23;20041;-79
2022/03/26 07:24:29;;;;;;;112.25;38.85;;;7.40;99.90;;;;;;6163731;23;20049;-74
2022/03/26 07:26:55;;;;;;;118.13;42.63;;;8.30;99.90;;;;;;6191663;23;20024;-80
2022/03/26 07:29:20;;;;;;;103.63;38.92;;;9.20;99.90;;;;;;6165130;23;20017;-80
2022/03/26 07:31:46;;;;;;;98.18;39.50;;;10.00;99.90;;;;;;6165016;23;20040;-80
2022/03/26 07:34:15;;;;;;;106.35;41.25;;;10.80;99.90;;;;;;6167301;23;20013;-80
2022/03/26 07:36:41;;;;;;;102.95;42.90;;;11.40;99.90;;;;;;6166639;23;20017;-80
2022/03/26 07:39:07;;;;;;;104.35;43.22;;;12.00;99.90;;;;;;6168497;23;20346;-80
2022/03/26 07:41:32;;;;;;;95.15;41.72;;;12.50;99.90;;;;;;6166877;23;20017;-80
2022/03/26 07:43:58;;;;;;;96.05;41.03;;;13.00;99.90;;;;;;6169059;23;20020;-80
2022/03/26 07:46:23;;;;;;;103.43;40.47;;;13.30;99.90;;;;;;6145154;23;20017;-80
2022/03/26 07:48:49;;;;;;;99.28;41.58;;;13.60;99.90;;;;;;6169240;23;20068;-80
2022/03/26 07:51:14;;;;;;;95.28;42.03;;;13.80;99.90;;;;;;6144359;23;20335;-80
2022/03/26 07:53:40;;;;;;;94.35;42.80;;;14.10;99.90;;;;;;6168588;23;20067;-80
2022/03/26 07:56:06;;;;;;;96.10;42.65;;;14.50;99.90;;;;;;6169072;23;20013;-80
2022/03/26 07:58:31;;;;;;;91.25;40.05;;;14.80;99.90;;;;;;6168384;23;20012;-80
2022/03/26 08:00:57;;;;;;;92.00;39.80;;;15.00;99.90;;;;;;6168827;23;20014;-81
2022/03/26 08:03:24;;;;;;;93.68;41.63;;;15.30;99.90;;;;;;6143982;23;20047;-82
2022/03/26 08:05:50;;;;;;;84.88;39.63;;;15.40;99.90;;;;;;6144193;23;20508;-82
2022/03/26 08:08:16;;;;;;;82.82;38.28;;;15.50;99.90;;;;;;6144493;23;20040;-81
2022/03/26 08:10:41;;;;;;;81.57;37.25;;;15.80;99.90;;;;;;6194386;23;20017;-81
2022/03/26 08:13:07;;;;;;;80.13;35.88;;;16.00;99.90;;;;;;6173478;23;20017;-81
2022/03/26 08:15:32;;;;;;;78.70;36.30;;;16.00;99.90;;;;;;6170694;23;20037;-81
2022/03/26 08:18:02;;;;;;;76.43;34.88;;;16.20;99.90;;;;;;6165050;23;20099;-80
2022/03/26 08:20:29;;;;;;;72.18;35.63;;;16.30;99.90;;;;;;6186147;23;20086;-81
2022/03/26 08:22:55;;;;;;;75.72;33.78;;;16.40;99.90;;;;;;6160811;23;20040;-80
2022/03/26 08:28:11;;;;;;;62.47;30.90;;;16.90;98.90;;;;;;6170215;23;20585;-81
2022/03/26 08:30:37;;;;;;;56.80;27.13;;;17.10;91.90;;;;;;6168413;23;20013;-80
2022/03/26 08:33:04;;;;;;;57.00;27.17;;;17.30;92.30;;;;;;6177085;23;20017;-80
2022/03/26 08:35:38;;;;;;;58.88;25.90;;;17.60;86.70;;;;;;6203491;23;20009;-80
2022/03/26 08:38:05;;;;;;;51.58;26.08;;;17.80;65.40;;;;;;6177177;23;20044;-80
2022/03/26 08:40:31;;;;;;;53.60;26.23;;;17.80;76.60;;;;;;6170584;23;20013;-80
2022/03/26 08:42:58;;;;;;;57.55;25.15;;;18.00;73.50;;;;;;6140031;23;20024;-80
2022/03/26 08:45:26;;;;;;;54.30;27.88;;;18.10;70.70;;;;;;6138942;23;20009;-81
2022/03/26 08:47:51;;;;;;;51.90;26.13;;;18.20;68.00;;;;;;6147578;23;20024;-80
2022/03/26 08:50:17;;;;;;;57.50;27.80;;;18.40;67.30;;;;;;6166789;23;20013;-81
2022/03/26 08:52:42;;;;;;;56.40;27.85;;;18.60;67.40;;;;;;6164451;23;20363;-80
2022/03/26 08:55:08;;;;;;;58.85;28.17;;;18.60;66.60;;;;;;6193259;23;20023;-80
2022/03/26 08:57:34;;;;;;;60.15;28.73;;;18.60;64.80;;;;;;6165859;23;20009;-80
2022/03/26 09:00:00;;;;;;;52.30;27.05;;;18.50;63.80;;;;;;6169292;23;20009;-80
2022/03/26 09:02:25;;;;;;;61.85;28.17;;;18.40;61.60;;;;;;6142648;23;20442;-80
2022/03/26 09:04:52;;;;;;;56.03;26.80;;;18.40;61.00;;;;;;6168594;23;20013;-80
2022/03/26 09:07:18;;;;;;;57.03;26.60;;;18.50;60.20;;;;;;6193807;23;20017;-80
2022/03/26 09:09:43;;;;;;;61.20;27.08;;;18.40;58.20;;;;;;6167384;23;20049;-80
2022/03/26 09:12:09;;;;;;;53.28;26.15;;;18.50;57.50;;;;;;6168054;23;20046;-80
2022/03/26 09:14:35;;;;;;;49.75;25.45;;;18.70;57.60;;;;;;6168036;23;20040;-80
2022/03/26 09:17:00;;;;;;;54.08;26.48;;;18.90;57.20;;;;;;6194880;23;20067;-80
2022/03/26 09:19:26;;;;;;;51.38;25.67;;;19.20;56.40;;;;;;6169214;23;20065;-79
2022/03/26 09:21:52;;;;;;;60.50;27.92;;;19.20;55.40;;;;;;6166879;23;20024;-80
2022/03/26 09:24:17;;;;;;;58.40;26.50;;;19.40;54.50;;;;;;6194671;23;20012;-80
2022/03/26 09:26:43;;;;;;;52.15;24.27;;;19.30;53.50;;;;;;6163698;23;20027;-79
2022/03/26 09:29:09;;;;;;;49.25;23.98;;;19.30;53.20;;;;;;6135838;23;20017;-79
2022/03/26 09:31:34;;;;;;;49.35;23.80;;;19.50;52.90;;;;;;6133879;23;20013;-79
2022/03/26 09:34:00;;;;;;;48.33;23.30;;;19.50;53.10;;;;;;6136479;23;20013;-81
2022/03/26 09:36:26;;;;;;;50.88;22.63;;;19.60;52.20;;;;;;6201275;23;20468;-79
2022/03/26 09:38:52;;;;;;;44.95;21.20;;;19.70;52.00;;;;;;6196793;23;20040;-81
2022/03/26 09:41:17;;;;;;;46.97;20.35;;;19.80;51.70;;;;;;6139346;23;20354;-81
2022/03/26 09:43:43;;;;;;;46.97;21.70;;;19.90;51.60;;;;;;6191002;23;20013;-81
2022/03/26 09:46:11;;;;;;;41.45;19.85;;;19.90;50.70;;;;;;6164217;23;20013;-81
2022/03/26 09:48:37;;;;;;;43.55;18.95;;;19.90;50.40;;;;;;6139427;23;20021;-79
2022/03/26 09:51:04;;;;;;;45.10;19.35;;;19.90;50.10;;;;;;6163739;23;20067;-80
2022/03/26 09:53:29;;;;;;;40.72;19.10;;;19.90;49.70;;;;;;6190335;23;20486;-80
2022/03/26 09:55:56;;;;;;;40.67;18.58;;;20.10;49.80;;;;;;6164458;23;20068;-80
2022/03/26 09:58:21;;;;;;;45.72;20.90;;;20.30;49.40;;;;;;6164185;23;20067;-80
2022/03/26 10:00:48;;;;;;;39.80;18.58;;;20.40;49.20;;;;;;6190536;23;20013;-80
2022/03/26 10:03:14;;;;;;;34.08;15.88;;;20.40;49.00;;;;;;6190270;23;20442;-80
2022/03/26 10:05:39;;;;;;;33.65;16.10;;;20.40;48.70;;;;;;6190477;23;20079;-80
2022/03/26 10:08:16;;;;;;;30.15;14.25;;;20.40;49.00;;;;;;6139975;23;20067;-80
2022/03/26 10:10:45;;;;;;;30.08;15.00;;;20.40;48.60;;;;;;6139267;23;20017;-81
2022/03/26 10:13:11;;;;;;;33.38;15.02;;;20.50;49.30;;;;;;6161543;23;20045;-81
2022/03/26 10:15:36;;;;;;;39.00;16.20;;;20.40;49.30;;;;;;6162262;23;20016;-81
2022/03/26 10:18:09;;;;;;;32.15;15.80;;;20.30;49.40;;;;;;6190157;23;20005;-80
2022/03/26 10:20:35;;;;;;;35.33;15.43;;;20.10;49.70;;;;;;6139040;23;20067;-80
2022/03/26 10:23:00;;;;;;;27.35;14.05;;;19.90;50.10;;;;;;6164345;23;20013;-80
2022/03/26 10:25:26;;;;;;;29.55;14.20;;;19.70;50.60;;;;;;6162918;23;20016;-80
2022/03/26 10:27:57;;;;;;;24.67;11.93;;;19.60;51.30;;;;;;6138482;23;20027;-79
2022/03/26 10:33:29;;;;;;;32.28;14.85;;;19.20;54.00;;;;;;6166139;23;20086;-81
2022/03/26 10:36:02;;;;;;;26.25;14.82;;;19.00;55.70;;;;;;6193550;23;20087;-81
2022/03/26 10:38:39;;;;;;;23.02;13.98;;;18.80;57.40;;;;;;6144160;23;20017;-81
2022/03/26 10:41:08;;;;;;;28.55;14.98;;;18.70;59.10;;;;;;6164654;23;20024;-80
2022/03/26 10:43:37;;;;;;;25.20;13.82;;;18.60;61.20;;;;;;6164652;23;20083;-81
2022/03/26 10:46:03;;;;;;;22.63;13.07;;;18.60;62.50;;;;;;6138281;23;20019;-81
2022/03/26 10:48:31;;;;;;;22.92;12.82;;;18.50;63.50;;;;;;6140877;23;20345;-80
2022/03/26 10:50:58;;;;;;;22.48;13.88;;;18.60;63.90;;;;;;6140526;23;20040;-80
2022/03/26 10:53:33;;;;;;;26.45;14.85;;;18.60;64.40;;;;;;6137634;23;20009;-82
2022/03/26 10:56:00;;;;;;;29.65;14.15;;;18.50;66.80;;;;;;6162641;23;20083;-80
2022/03/26 10:58:26;;;;;;;29.00;14.95;;;18.60;66.80;;;;;;6163314;23;20024;-80
2022/03/26 11:00:52;;;;;;;22.67;14.55;;;18.60;67.30;;;;;;6162889;23;20048;-81
2022/03/26 11:03:17;;;;;;;28.52;16.33;;;18.60;66.00;;;;;;6164109;23;20024;-80
2022/03/26 11:05:45;;;;;;;31.95;16.33;;;18.70;64.90;;;;;;6140076;23;20017;-81
2022/03/26 11:08:12;;;;;;;31.38;15.63;;;18.70;64.80;;;;;;6163633;23;20021;-80
2022/03/26 11:10:38;;;;;;;33.72;17.70;;;18.70;65.80;;;;;;6138921;23;20017;-81
2022/03/26 11:13:08;;;;;;;30.70;16.52;;;18.70;67.70;;;;;;6135524;23;20070;-81
2022/03/26 11:15:40;;;;;;;30.85;16.70;;;18.80;67.80;;;;;;6158730;23;20014;-80
2022/03/26 11:18:37;;;;;;;27.83;14.68;;;18.80;70.10;;;;;;6160772;23;20032;-82
2022/03/26 11:21:21;;;;;;;23.35;14.50;;;18.90;67.00;;;;;;6135645;23;20080;-81
2022/03/26 11:24:19;;;;;;;29.67;15.57;;;18.80;66.70;;;;;;6135292;23;20027;-80
2022/03/26 11:27:13;;;;;;;28.83;15.88;;;18.80;72.40;;;;;;6159245;23;20020;-80
2022/03/26 11:29:50;;;;;;;31.38;14.73;;;18.70;68.70;;;;;;6158292;23;20021;-81
2022/03/26 11:32:18;;;;;;;20.45;12.27;;;18.70;68.10;;;;;;6159580;23;20065;-79
2022/03/26 11:34:44;;;;;;;25.52;13.90;;;18.70;69.20;;;;;;6160532;23;20387;-80
2022/03/26 11:37:22;;;;;;;24.08;13.60;;;18.60;69.20;;;;;;6160164;23;20063;-79
2022/03/26 11:39:51;;;;;;;27.90;14.75;;;18.70;69.40;;;;;;6186172;23;20032;-80
2022/03/26 11:42:39;;;;;;;25.25;13.65;;;18.70;68.50;;;;;;6160601;23;20237;-80
2022/03/26 11:51:16;;;;;;;23.13;12.55;;;18.60;67.90;;;;;;6187010;23;20021;-80
2022/03/26 11:53:44;;;;;;;24.45;12.98;;;18.70;71.00;;;;;;6186674;23;20020;-80
2022/03/26 11:56:28;;;;;;;21.30;11.55;;;18.60;67.80;;;;;;6160314;23;20068;-81
2022/03/26 11:59:05;;;;;;;20.13;12.50;;;18.70;69.80;;;;;;6161348;23;20040;-80
2022/03/26 12:01:35;;;;;;;23.30;11.63;;;18.80;65.20;;;;;;6187043;23;20044;-81
2022/03/26 12:04:15;;;;;;;19.50;10.88;;;18.80;68.20;;;;;;6159196;23;20017;-81
2022/03/26 12:06:43;;;;;;;17.48;10.57;;;18.90;69.30;;;;;;6160331;23;20462;-80
2022/03/26 12:09:11;;;;;;;16.83;9.18;;;19.00;67.10;;;;;;6159055;23;20021;-82
2022/03/26 12:11:37;;;;;;;15.82;11.00;;;19.10;65.60;;;;;;6159408;23;20431;-80
2022/03/26 12:14:05;;;;;;;13.93;9.00;;;19.00;66.10;;;;;;6184837;23;20015;-82
2022/03/26 12:16:49;;;;;;;16.20;9.30;;;19.10;65.00;;;;;;6186052;23;20472;-79
2022/03/26 12:19:45;;;;;;;16.88;9.93;;;19.00;65.00;;;;;;6159955;23;20497;-80
2022/03/26 12:22:26;;;;;;;18.50;10.00;;;19.00;71.90;;;;;;6136243;23;20327;-82
2022/03/26 12:24:56;;;;;;;19.95;11.27;;;19.00;68.50;;;;;;6138250;23;20021;-81
2022/03/26 12:27:22;;;;;;;16.35;10.00;;;19.00;68.60;;;;;;6161774;23;20023;-80
2022/03/26 12:29:49;;;;;;;17.63;9.55;;;19.10;68.50;;;;;;6160578;23;20017;-79
2022/03/26 12:32:17;;;;;;;16.50;9.40;;;19.10;68.40;;;;;;6161540;23;20013;-81
2022/03/26 12:35:07;;;;;;;14.32;8.20;;;19.10;67.70;;;;;;6161753;23;20005;-80
2022/03/26 12:37:33;;;;;;;14.80;7.38;;;19.10;67.10;;;;;;6135407;23;20021;-80
2022/03/26 12:39:59;;;;;;;22.38;9.25;;;19.10;68.00;;;;;;6185694;23;20369;-79
2022/03/26 12:42:26;;;;;;;16.65;7.82;;;19.10;67.40;;;;;;6134546;23;20056;-80
2022/03/26 12:44:52;;;;;;;15.13;7.68;;;19.20;68.60;;;;;;6158634;23;20017;-80